createdAt,value
2019-03-21T00:00:15.455Z,9.93
2019-03-21T00:00:49.371Z,9.92
2019-03-21T00:01:19.601Z,9.93
2019-03-21T00:01:50.860Z,9.92
2019-03-21T00:02:22.063Z,9.90
2019-03-21T00:02:53.265Z,9.87
2019-03-21T00:03:24.509Z,9.83
2019-03-21T00:03:55.805Z,9.82
2019-03-21T00:04:27.017Z,9.82
2019-03-21T00:04:58.227Z,9.82
2019-03-21T00:05:29.463Z,9.80
2019-03-21T00:06:00.703Z,9.81
2019-03-21T00:06:31.910Z,9.81
2019-03-21T00:07:03.817Z,9.83
2019-03-21T00:07:35.025Z,9.84
2019-03-21T00:08:06.227Z,9.83
2019-03-21T00:08:37.449Z,9.84
2019-03-21T00:09:08.651Z,9.93
2019-03-21T00:09:39.877Z,10.05
2019-03-21T00:10:11.135Z,10.10
2019-03-21T00:10:42.358Z,10.04
2019-03-21T00:11:13.587Z,10.04
2019-03-21T00:11:44.794Z,10.01
2019-03-21T00:12:16.012Z,9.98
2019-03-21T00:12:47.269Z,9.98
2019-03-21T00:13:18.478Z,9.98
2019-03-21T00:13:49.683Z,9.97
2019-03-21T00:14:20.971Z,9.96
2019-03-21T00:14:52.210Z,9.94
2019-03-21T00:15:23.439Z,9.93
2019-03-21T00:15:54.638Z,9.91
2019-03-21T00:16:25.851Z,9.90
2019-03-21T00:16:57.058Z,9.87
2019-03-21T00:17:28.276Z,9.83
2019-03-21T00:17:59.539Z,9.81
2019-03-21T00:18:30.741Z,9.79
2019-03-21T00:19:01.963Z,9.80
2019-03-21T00:19:33.186Z,9.78
2019-03-21T00:20:04.410Z,9.78
2019-03-21T00:20:35.626Z,9.75
2019-03-21T00:21:06.831Z,9.75
2019-03-21T00:21:38.088Z,9.74
2019-03-21T00:22:09.295Z,9.72
2019-03-21T00:22:40.499Z,9.70
2019-03-21T00:23:11.762Z,9.64
2019-03-21T00:23:42.974Z,9.62
2019-03-21T00:24:14.222Z,9.59
2019-03-21T00:24:45.430Z,9.57
2019-03-21T00:25:16.711Z,9.59
2019-03-21T00:25:47.922Z,9.58
2019-03-21T00:26:19.124Z,9.60
2019-03-21T00:26:50.335Z,9.60
2019-03-21T00:27:21.549Z,9.60
2019-03-21T00:27:52.816Z,9.62
2019-03-21T00:28:24.066Z,9.62
2019-03-21T00:28:55.279Z,9.61
2019-03-21T00:29:26.478Z,9.60
2019-03-21T00:29:57.764Z,9.60
2019-03-21T00:30:29.028Z,9.58
2019-03-21T00:31:00.239Z,9.55
2019-03-21T00:31:31.475Z,9.58
2019-03-21T00:32:02.669Z,9.60
2019-03-21T00:32:33.874Z,9.60
2019-03-21T00:33:05.093Z,9.61
2019-03-21T00:33:36.303Z,9.60
2019-03-21T00:34:07.564Z,9.64
2019-03-21T00:34:38.770Z,9.72
2019-03-21T00:35:10.005Z,9.74
2019-03-21T00:35:41.219Z,9.74
2019-03-21T00:36:12.423Z,9.73
2019-03-21T00:36:43.653Z,9.67
2019-03-21T00:37:15.820Z,9.69
2019-03-21T00:37:47.027Z,9.67
2019-03-21T00:38:18.260Z,9.65
2019-03-21T00:38:49.463Z,9.65
2019-03-21T00:39:20.673Z,9.64
2019-03-21T00:39:51.891Z,9.60
2019-03-21T00:40:23.344Z,9.58
2019-03-21T00:40:54.542Z,9.54
2019-03-21T00:41:25.751Z,9.54
2019-03-21T00:41:56.970Z,9.55
2019-03-21T00:42:28.166Z,9.56
2019-03-21T00:42:59.378Z,9.53
2019-03-21T00:43:30.590Z,9.51
2019-03-21T00:44:01.793Z,9.50
2019-03-21T00:44:33.013Z,9.45
2019-03-21T00:45:04.227Z,9.44
2019-03-21T00:45:35.422Z,9.41
2019-03-21T00:46:06.682Z,9.40
2019-03-21T00:46:37.897Z,9.41
2019-03-21T00:47:09.109Z,9.41
2019-03-21T00:47:40.331Z,9.41
2019-03-21T00:48:11.537Z,9.45
2019-03-21T00:48:42.743Z,9.47
2019-03-21T00:49:13.946Z,9.47
2019-03-21T00:49:45.161Z,9.45
2019-03-21T00:50:16.371Z,9.48
2019-03-21T00:50:47.641Z,9.48
2019-03-21T00:51:18.840Z,9.46
2019-03-21T00:51:50.060Z,9.47
2019-03-21T00:52:21.266Z,9.46
2019-03-21T00:52:52.509Z,9.45
2019-03-21T00:53:23.722Z,9.43
2019-03-21T00:53:54.919Z,9.43
2019-03-21T00:54:26.131Z,9.41
2019-03-21T00:54:57.342Z,9.38
2019-03-21T00:55:28.641Z,9.36
2019-03-21T00:55:59.851Z,9.37
2019-03-21T00:56:31.354Z,9.37
2019-03-21T00:57:02.566Z,9.38
2019-03-21T00:57:33.820Z,9.39
2019-03-21T00:58:05.066Z,9.38
2019-03-21T00:58:36.285Z,9.38
2019-03-21T00:59:07.485Z,9.40
2019-03-21T00:59:38.700Z,9.42
2019-03-21T01:00:09.909Z,9.43
2019-03-21T01:00:41.125Z,9.43
2019-03-21T01:01:12.341Z,9.44
2019-03-21T01:01:43.607Z,9.43
2019-03-21T01:02:14.805Z,9.44
2019-03-21T01:02:46.002Z,9.43
2019-03-21T01:03:17.222Z,9.41
2019-03-21T01:03:48.429Z,9.39
2019-03-21T01:04:19.654Z,9.36
2019-03-21T01:04:50.894Z,9.35
2019-03-21T01:05:22.105Z,9.33
2019-03-21T01:05:53.318Z,9.32
2019-03-21T01:06:24.527Z,9.29
2019-03-21T01:06:55.773Z,9.28
2019-03-21T01:07:26.942Z,9.24
2019-03-21T01:07:58.186Z,9.19
2019-03-21T01:08:29.391Z,9.17
2019-03-21T01:09:00.615Z,9.12
2019-03-21T01:09:31.821Z,9.12
2019-03-21T01:10:03.037Z,9.11
2019-03-21T01:10:34.244Z,9.06
2019-03-21T01:11:05.464Z,9.01
2019-03-21T01:11:36.665Z,8.96
2019-03-21T01:12:07.887Z,8.90
2019-03-21T01:12:39.099Z,8.86
2019-03-21T01:13:10.374Z,8.79
2019-03-21T01:13:41.624Z,8.74
2019-03-21T01:14:12.839Z,8.72
2019-03-21T01:14:44.038Z,8.67
2019-03-21T01:15:15.247Z,8.63
2019-03-21T01:15:46.450Z,8.62
2019-03-21T01:16:17.654Z,8.56
2019-03-21T01:16:48.862Z,8.52
2019-03-21T01:17:20.069Z,8.51
2019-03-21T01:17:51.353Z,8.50
2019-03-21T01:18:22.562Z,8.48
2019-03-21T01:18:53.831Z,8.46
2019-03-21T01:19:25.032Z,8.46
2019-03-21T01:19:56.238Z,8.46
2019-03-21T01:20:27.470Z,8.45
2019-03-21T01:20:58.661Z,8.44
2019-03-21T01:21:29.879Z,8.43
2019-03-21T01:22:01.094Z,8.42
2019-03-21T01:22:32.322Z,8.40
2019-03-21T01:23:03.589Z,8.40
2019-03-21T01:23:34.920Z,8.40
2019-03-21T01:24:06.140Z,8.40
2019-03-21T01:24:37.350Z,8.39
2019-03-21T01:25:08.554Z,8.39
2019-03-21T01:25:39.820Z,8.37
2019-03-21T01:26:11.047Z,8.33
2019-03-21T01:26:42.259Z,8.31
2019-03-21T01:27:13.456Z,8.27
2019-03-21T01:27:44.662Z,8.25
2019-03-21T01:28:15.940Z,8.22
2019-03-21T01:28:47.166Z,8.21
2019-03-21T01:29:18.390Z,8.21
2019-03-21T01:29:49.662Z,8.20
2019-03-21T01:30:20.872Z,8.17
2019-03-21T01:30:52.082Z,8.19
2019-03-21T01:31:23.300Z,8.17
2019-03-21T01:31:54.721Z,8.18
2019-03-21T01:32:25.969Z,8.18
2019-03-21T01:32:57.578Z,8.19
2019-03-21T01:33:28.790Z,8.19
2019-03-21T01:33:59.988Z,8.14
2019-03-21T01:34:31.210Z,8.12
2019-03-21T01:35:02.417Z,8.10
2019-03-21T01:35:33.635Z,8.09
2019-03-21T01:36:04.869Z,8.08
2019-03-21T01:36:36.092Z,8.04
2019-03-21T01:37:07.292Z,8.03
2019-03-21T01:37:38.523Z,7.98
2019-03-21T01:38:09.779Z,7.91
2019-03-21T01:38:40.979Z,7.91
2019-03-21T01:39:12.223Z,7.91
2019-03-21T01:39:43.431Z,7.88
2019-03-21T01:40:14.642Z,7.90
2019-03-21T01:40:45.931Z,7.88
2019-03-21T01:41:17.146Z,7.88
2019-03-21T01:41:48.352Z,7.89
2019-03-21T01:42:19.572Z,7.88
2019-03-21T01:42:50.791Z,7.87
2019-03-21T01:43:22.017Z,7.83
2019-03-21T01:43:53.229Z,7.84
2019-03-21T01:44:24.432Z,7.84
2019-03-21T01:44:55.648Z,7.85
2019-03-21T01:45:26.853Z,7.85
2019-03-21T01:45:58.103Z,7.86
2019-03-21T01:46:29.315Z,7.84
2019-03-21T01:47:00.518Z,7.83
2019-03-21T01:47:31.729Z,7.81
2019-03-21T01:48:02.940Z,7.76
2019-03-21T01:48:34.162Z,7.73
2019-03-21T01:49:05.367Z,7.73
2019-03-21T01:49:36.577Z,7.72
2019-03-21T01:50:07.835Z,7.72
2019-03-21T01:50:39.046Z,7.71
2019-03-21T01:51:10.324Z,7.68
2019-03-21T01:51:41.579Z,7.69
2019-03-21T01:52:12.790Z,7.69
2019-03-21T01:52:43.999Z,7.69
2019-03-21T01:53:15.207Z,7.65
2019-03-21T01:53:46.448Z,7.66
2019-03-21T01:54:17.662Z,7.68
2019-03-21T01:54:48.905Z,7.70
2019-03-21T01:55:20.109Z,7.71
2019-03-21T01:55:51.343Z,7.72
2019-03-21T01:56:22.560Z,7.72
2019-03-21T01:56:53.772Z,7.71
2019-03-21T01:57:24.978Z,7.71
2019-03-21T01:57:56.180Z,7.70
2019-03-21T01:58:27.408Z,7.70
2019-03-21T01:58:58.621Z,7.75
2019-03-21T01:59:29.879Z,7.78
2019-03-21T02:00:01.097Z,7.79
2019-03-21T02:00:32.305Z,7.81
2019-03-21T02:01:03.562Z,7.82
2019-03-21T02:01:34.779Z,7.82
2019-03-21T02:02:05.998Z,7.82
2019-03-21T02:02:37.206Z,7.82
2019-03-21T02:03:08.416Z,7.83
2019-03-21T02:03:39.624Z,7.83
2019-03-21T02:04:10.843Z,7.83
2019-03-21T02:04:42.052Z,7.82
2019-03-21T02:05:13.255Z,7.84
2019-03-21T02:05:44.388Z,7.85
2019-03-21T02:06:15.641Z,7.83
2019-03-21T02:06:46.848Z,7.83
2019-03-21T02:07:18.071Z,7.82
2019-03-21T02:07:49.279Z,7.83
2019-03-21T02:08:20.502Z,7.85
2019-03-21T02:08:51.726Z,7.84
2019-03-21T02:09:22.941Z,7.84
2019-03-21T02:09:54.142Z,7.84
2019-03-21T02:10:25.729Z,7.84
2019-03-21T02:10:56.949Z,7.85
2019-03-21T02:11:28.158Z,7.85
2019-03-21T02:11:59.372Z,7.86
2019-03-21T02:12:30.591Z,7.87
2019-03-21T02:13:01.864Z,7.88
2019-03-21T02:13:33.099Z,7.88
2019-03-21T02:14:04.297Z,7.89
2019-03-21T02:14:35.511Z,7.90
2019-03-21T02:15:06.718Z,7.91
2019-03-21T02:15:37.922Z,7.90
2019-03-21T02:16:09.170Z,7.91
2019-03-21T02:16:40.380Z,7.91
2019-03-21T02:17:11.589Z,7.91
2019-03-21T02:17:42.784Z,7.93
2019-03-21T02:18:14.039Z,7.92
2019-03-21T02:18:45.251Z,7.93
2019-03-21T02:19:16.472Z,7.91
2019-03-21T02:19:47.674Z,7.92
2019-03-21T02:20:18.889Z,7.91
2019-03-21T02:20:50.094Z,7.89
2019-03-21T02:21:21.343Z,7.89
2019-03-21T02:21:52.551Z,7.89
2019-03-21T02:22:23.759Z,7.89
2019-03-21T02:22:54.982Z,7.88
2019-03-21T02:23:26.205Z,7.85
2019-03-21T02:23:57.406Z,7.83
2019-03-21T02:24:28.628Z,7.81
2019-03-21T02:24:59.901Z,7.81
2019-03-21T02:25:31.108Z,7.82
2019-03-21T02:26:02.307Z,7.83
2019-03-21T02:26:33.503Z,7.83
2019-03-21T02:27:04.708Z,7.82
2019-03-21T02:27:35.937Z,7.82
2019-03-21T02:28:07.155Z,7.82
2019-03-21T02:28:38.363Z,7.84
2019-03-21T02:29:09.618Z,7.84
2019-03-21T02:29:40.859Z,7.86
2019-03-21T02:30:12.187Z,7.87
2019-03-21T02:30:43.395Z,7.87
2019-03-21T02:31:14.674Z,7.88
2019-03-21T02:31:45.876Z,7.90
2019-03-21T02:32:17.096Z,7.92
2019-03-21T02:32:48.304Z,7.91
2019-03-21T02:33:19.521Z,7.93
2019-03-21T02:33:51.110Z,7.94
2019-03-21T02:34:22.318Z,7.95
2019-03-21T02:34:53.539Z,7.94
2019-03-21T02:35:24.798Z,7.95
2019-03-21T02:35:56.003Z,7.95
2019-03-21T02:36:27.231Z,7.95
2019-03-21T02:36:58.468Z,7.94
2019-03-21T02:37:29.675Z,7.92
2019-03-21T02:38:00.903Z,7.92
2019-03-21T02:38:32.122Z,7.93
2019-03-21T02:39:03.324Z,7.93
2019-03-21T02:39:34.538Z,7.93
2019-03-21T02:40:05.792Z,7.94
2019-03-21T02:40:37.032Z,7.94
2019-03-21T02:41:08.266Z,7.93
2019-03-21T02:41:39.475Z,7.94
2019-03-21T02:42:10.735Z,7.94
2019-03-21T02:42:41.946Z,7.94
2019-03-21T02:43:13.154Z,7.93
2019-03-21T02:43:44.388Z,7.92
2019-03-21T02:44:15.588Z,7.90
2019-03-21T02:44:46.912Z,7.91
2019-03-21T02:45:18.263Z,7.91
2019-03-21T02:45:49.620Z,7.90
2019-03-21T02:46:20.873Z,7.89
2019-03-21T02:46:52.090Z,7.89
2019-03-21T02:47:23.301Z,7.89
2019-03-21T02:47:54.514Z,7.89
2019-03-21T02:48:25.707Z,7.86
2019-03-21T02:48:56.905Z,7.85
2019-03-21T02:49:28.098Z,7.84
2019-03-21T02:49:59.321Z,7.85
2019-03-21T02:50:30.543Z,7.83
2019-03-21T02:51:01.739Z,7.84
2019-03-21T02:51:32.981Z,7.81
2019-03-21T02:52:04.255Z,7.80
2019-03-21T02:52:35.467Z,7.80
2019-03-21T02:53:06.725Z,7.79
2019-03-21T02:53:37.947Z,7.76
2019-03-21T02:54:09.216Z,7.75
2019-03-21T02:54:40.465Z,7.73
2019-03-21T02:55:11.733Z,7.74
2019-03-21T02:55:42.955Z,7.76
2019-03-21T02:56:14.227Z,7.76
2019-03-21T02:56:45.481Z,7.77
2019-03-21T02:57:16.686Z,7.79
2019-03-21T02:57:47.942Z,7.80
2019-03-21T02:58:19.147Z,7.80
2019-03-21T02:58:50.367Z,7.80
2019-03-21T02:59:21.642Z,7.77
2019-03-21T02:59:52.843Z,7.76
2019-03-21T03:00:24.045Z,7.76
2019-03-21T03:00:55.283Z,7.75
2019-03-21T03:01:26.494Z,7.74
2019-03-21T03:01:57.698Z,7.73
2019-03-21T03:02:29.251Z,7.73
2019-03-21T03:03:00.479Z,7.73
2019-03-21T03:03:31.675Z,7.73
2019-03-21T03:04:02.870Z,7.74
2019-03-21T03:04:34.131Z,7.75
2019-03-21T03:05:05.337Z,7.76
2019-03-21T03:05:36.554Z,7.76
2019-03-21T03:06:07.773Z,7.75
2019-03-21T03:06:38.977Z,7.72
2019-03-21T03:07:10.198Z,7.69
2019-03-21T03:07:41.444Z,7.63
2019-03-21T03:08:12.705Z,7.59
2019-03-21T03:08:43.907Z,7.62
2019-03-21T03:09:15.110Z,7.65
2019-03-21T03:09:46.321Z,7.67
2019-03-21T03:10:17.544Z,7.70
2019-03-21T03:10:48.770Z,7.71
2019-03-21T03:11:19.987Z,7.72
2019-03-21T03:11:51.191Z,7.73
2019-03-21T03:12:22.389Z,7.74
2019-03-21T03:12:53.589Z,7.74
2019-03-21T03:13:24.806Z,7.73
2019-03-21T03:13:56.082Z,7.73
2019-03-21T03:14:27.306Z,7.72
2019-03-21T03:14:58.508Z,7.71
2019-03-21T03:15:30.053Z,7.70
2019-03-21T03:16:01.253Z,7.70
2019-03-21T03:16:32.450Z,7.70
2019-03-21T03:17:03.647Z,7.69
2019-03-21T03:17:34.852Z,7.68
2019-03-21T03:18:06.079Z,7.69
2019-03-21T03:18:37.284Z,7.70
2019-03-21T03:19:08.543Z,7.69
2019-03-21T03:19:39.751Z,7.69
2019-03-21T03:20:10.960Z,7.68
2019-03-21T03:20:42.161Z,7.68
2019-03-21T03:21:13.387Z,7.69
2019-03-21T03:21:44.675Z,7.70
2019-03-21T03:22:15.877Z,7.70
2019-03-21T03:22:47.121Z,7.72
2019-03-21T03:23:18.436Z,7.74
2019-03-21T03:23:49.645Z,7.76
2019-03-21T03:24:20.901Z,7.76
2019-03-21T03:24:52.113Z,7.77
2019-03-21T03:25:23.316Z,7.76
2019-03-21T03:25:54.557Z,7.77
2019-03-21T03:26:25.782Z,7.77
2019-03-21T03:26:56.979Z,7.79
2019-03-21T03:27:28.211Z,7.79
2019-03-21T03:27:59.456Z,7.80
2019-03-21T03:28:30.686Z,7.80
2019-03-21T03:29:01.902Z,7.81
2019-03-21T03:29:33.140Z,7.82
2019-03-21T03:30:04.487Z,7.80
2019-03-21T03:30:35.718Z,7.80
2019-03-21T03:31:06.927Z,7.83
2019-03-21T03:31:38.193Z,7.85
2019-03-21T03:32:09.405Z,7.89
2019-03-21T03:32:40.661Z,7.92
2019-03-21T03:33:11.880Z,7.95
2019-03-21T03:33:43.103Z,7.98
2019-03-21T03:34:14.310Z,8.01
2019-03-21T03:34:45.542Z,8.03
2019-03-21T03:35:16.736Z,8.05
2019-03-21T03:35:47.966Z,8.06
2019-03-21T03:36:19.161Z,8.08
2019-03-21T03:36:50.368Z,8.09
2019-03-21T03:37:21.572Z,8.10
2019-03-21T03:37:52.829Z,8.13
2019-03-21T03:38:24.038Z,8.15
2019-03-21T03:38:55.271Z,8.17
2019-03-21T03:39:26.506Z,8.16
2019-03-21T03:39:57.702Z,8.17
2019-03-21T03:40:28.907Z,8.17
2019-03-21T03:41:00.129Z,8.17
2019-03-21T03:41:31.371Z,8.19
2019-03-21T03:42:02.574Z,8.21
2019-03-21T03:42:33.795Z,8.22
2019-03-21T03:43:05.004Z,8.23
2019-03-21T03:43:36.232Z,8.24
2019-03-21T03:44:07.429Z,8.22
2019-03-21T03:44:38.630Z,8.23
2019-03-21T03:45:09.839Z,8.24
2019-03-21T03:45:41.039Z,8.25
2019-03-21T03:46:12.267Z,8.25
2019-03-21T03:46:43.532Z,8.27
2019-03-21T03:47:14.777Z,8.28
2019-03-21T03:47:45.967Z,8.28
2019-03-21T03:48:19.760Z,8.28
2019-03-21T03:48:50.133Z,8.30
2019-03-21T03:49:21.347Z,8.33
2019-03-21T03:49:52.576Z,8.34
2019-03-21T03:50:23.831Z,8.36
2019-03-21T03:50:55.921Z,8.38
2019-03-21T03:51:27.179Z,8.38
2019-03-21T03:51:58.459Z,8.40
2019-03-21T03:52:29.714Z,8.42
2019-03-21T03:53:00.921Z,8.41
2019-03-21T03:53:32.132Z,8.39
2019-03-21T03:54:03.357Z,8.35
2019-03-21T03:54:34.573Z,8.38
2019-03-21T03:55:05.776Z,8.40
2019-03-21T03:55:37.006Z,8.39
2019-03-21T03:56:08.209Z,8.38
2019-03-21T03:56:39.477Z,8.41
2019-03-21T03:57:10.686Z,8.43
2019-03-21T03:57:41.908Z,8.44
2019-03-21T03:58:13.103Z,8.44
2019-03-21T03:58:44.332Z,8.44
2019-03-21T03:59:15.546Z,8.45
2019-03-21T03:59:46.744Z,8.45
2019-03-21T04:00:17.949Z,8.43
2019-03-21T04:00:49.168Z,8.42
2019-03-21T04:01:20.498Z,8.40
2019-03-21T04:01:51.696Z,8.40
2019-03-21T04:02:22.908Z,8.41
2019-03-21T04:02:54.115Z,8.40
2019-03-21T04:03:25.324Z,8.39
2019-03-21T04:03:56.566Z,8.39
2019-03-21T04:04:27.757Z,8.38
2019-03-21T04:04:58.959Z,8.38
2019-03-21T04:05:30.215Z,8.37
2019-03-21T04:06:01.442Z,8.34
2019-03-21T04:06:32.696Z,8.31
2019-03-21T04:07:03.902Z,8.28
2019-03-21T04:07:35.111Z,8.29
2019-03-21T04:08:06.332Z,8.27
2019-03-21T04:08:37.540Z,8.28
2019-03-21T04:09:08.746Z,8.27
2019-03-21T04:09:39.990Z,8.26
2019-03-21T04:10:11.204Z,8.24
2019-03-21T04:10:42.433Z,8.21
2019-03-21T04:11:13.649Z,8.19
2019-03-21T04:11:44.883Z,8.18
2019-03-21T04:12:16.137Z,8.18
2019-03-21T04:12:49.762Z,8.18
2019-03-21T04:13:20.987Z,8.18
2019-03-21T04:13:52.195Z,8.17
2019-03-21T04:14:23.406Z,8.15
2019-03-21T04:14:54.676Z,8.10
2019-03-21T04:15:25.917Z,8.09
2019-03-21T04:15:57.142Z,8.06
2019-03-21T04:16:28.353Z,8.04
2019-03-21T04:16:59.569Z,8.03
2019-03-21T04:17:30.838Z,8.05
2019-03-21T04:18:02.052Z,8.07
2019-03-21T04:18:33.276Z,8.13
2019-03-21T04:19:04.482Z,8.19
2019-03-21T04:19:35.674Z,8.20
2019-03-21T04:20:06.943Z,8.20
2019-03-21T04:20:38.142Z,8.20
2019-03-21T04:21:09.369Z,8.20
2019-03-21T04:21:40.575Z,8.20
2019-03-21T04:22:11.831Z,8.19
2019-03-21T04:22:43.031Z,8.20
2019-03-21T04:23:14.255Z,8.18
2019-03-21T04:23:45.646Z,8.17
2019-03-21T04:24:16.855Z,8.14
2019-03-21T04:24:48.066Z,8.12
2019-03-21T04:25:19.287Z,8.08
2019-03-21T04:25:50.502Z,8.10
2019-03-21T04:26:21.718Z,8.11
2019-03-21T04:26:52.919Z,8.10
2019-03-21T04:27:24.189Z,8.11
2019-03-21T04:27:55.447Z,8.10
2019-03-21T04:28:26.797Z,8.11
2019-03-21T04:28:58.026Z,8.12
2019-03-21T04:29:29.260Z,8.12
2019-03-21T04:30:00.482Z,8.12
2019-03-21T04:30:32.104Z,8.12
2019-03-21T04:31:03.358Z,8.11
2019-03-21T04:31:34.553Z,8.11
2019-03-21T04:32:05.761Z,8.09
2019-03-21T04:32:36.999Z,8.07
2019-03-21T04:33:08.264Z,8.04
2019-03-21T04:33:39.480Z,7.99
2019-03-21T04:34:10.696Z,7.97
2019-03-21T04:34:41.909Z,7.98
2019-03-21T04:35:13.124Z,7.95
2019-03-21T04:35:44.349Z,7.95
2019-03-21T04:36:15.587Z,7.93
2019-03-21T04:36:46.790Z,7.92
2019-03-21T04:37:17.998Z,7.93
2019-03-21T04:37:49.259Z,7.94
2019-03-21T04:38:20.493Z,7.97
2019-03-21T04:38:51.716Z,7.99
2019-03-21T04:39:23.000Z,8.03
2019-03-21T04:39:54.205Z,8.02
2019-03-21T04:40:25.415Z,8.00
2019-03-21T04:40:56.628Z,7.98
2019-03-21T04:41:27.845Z,7.98
2019-03-21T04:41:59.124Z,7.94
2019-03-21T04:42:30.461Z,7.91
2019-03-21T04:43:01.683Z,7.69
2019-03-21T04:43:32.897Z,7.85
2019-03-21T04:44:04.128Z,7.82
2019-03-21T04:44:35.343Z,7.80
2019-03-21T04:45:06.547Z,7.77
2019-03-21T04:45:38.859Z,7.76
2019-03-21T04:46:10.062Z,7.78
2019-03-21T04:46:41.281Z,7.77
2019-03-21T04:47:12.530Z,7.76
2019-03-21T04:47:43.739Z,7.74
2019-03-21T04:48:14.959Z,7.72
2019-03-21T04:48:46.198Z,7.71
2019-03-21T04:49:17.399Z,7.70
2019-03-21T04:49:48.642Z,7.67
2019-03-21T04:50:19.849Z,7.71
2019-03-21T04:50:51.121Z,7.73
2019-03-21T04:51:22.320Z,7.74
2019-03-21T04:51:53.565Z,7.78
2019-03-21T04:52:24.770Z,7.81
2019-03-21T04:52:55.976Z,7.82
2019-03-21T04:53:27.245Z,7.83
2019-03-21T04:53:58.431Z,7.84
2019-03-21T04:54:29.642Z,7.86
2019-03-21T04:55:00.904Z,7.89
2019-03-21T04:55:32.108Z,7.91
2019-03-21T04:56:03.341Z,7.93
2019-03-21T04:56:34.544Z,7.93
2019-03-21T04:57:05.758Z,7.95
2019-03-21T04:57:36.963Z,7.99
2019-03-21T04:58:08.182Z,8.02
2019-03-21T04:58:39.437Z,8.06
2019-03-21T04:59:10.710Z,8.08
2019-03-21T04:59:41.915Z,8.10
2019-03-21T05:00:13.124Z,8.13
2019-03-21T05:00:44.335Z,8.17
2019-03-21T05:01:15.558Z,8.20
2019-03-21T05:01:46.770Z,8.21
2019-03-21T05:02:17.974Z,8.22
2019-03-21T05:02:49.185Z,8.21
2019-03-21T05:03:20.404Z,8.20
2019-03-21T05:03:51.644Z,8.19
2019-03-21T05:04:22.873Z,8.16
2019-03-21T05:04:54.127Z,8.15
2019-03-21T05:05:25.321Z,8.16
2019-03-21T05:05:56.538Z,8.17
2019-03-21T05:06:27.742Z,8.19
2019-03-21T05:06:58.988Z,8.23
2019-03-21T05:07:30.209Z,8.25
2019-03-21T05:08:01.410Z,8.26
2019-03-21T05:08:32.661Z,8.25
2019-03-21T05:09:03.862Z,8.30
2019-03-21T05:09:35.073Z,8.32
2019-03-21T05:10:06.270Z,8.32
2019-03-21T05:10:37.474Z,8.30
2019-03-21T05:11:08.732Z,8.28
2019-03-21T05:11:39.927Z,8.34
2019-03-21T05:12:11.189Z,8.35
2019-03-21T05:12:42.400Z,8.35
2019-03-21T05:13:13.596Z,8.36
2019-03-21T05:13:44.832Z,8.38
2019-03-21T05:14:16.040Z,8.38
2019-03-21T05:14:47.274Z,8.40
2019-03-21T05:15:18.480Z,8.41
2019-03-21T05:15:49.684Z,8.41
2019-03-21T05:16:20.948Z,8.40
2019-03-21T05:16:52.179Z,8.39
2019-03-21T05:17:23.402Z,8.39
2019-03-21T05:17:54.603Z,8.36
2019-03-21T05:18:25.819Z,8.36
2019-03-21T05:18:57.080Z,8.36
2019-03-21T05:19:28.278Z,8.34
2019-03-21T05:19:59.536Z,8.30
2019-03-21T05:20:30.762Z,8.29
2019-03-21T05:21:01.987Z,8.29
2019-03-21T05:21:33.210Z,8.27
2019-03-21T05:22:04.425Z,8.27
2019-03-21T05:22:35.644Z,8.28
2019-03-21T05:23:06.847Z,8.30
2019-03-21T05:23:38.063Z,8.35
2019-03-21T05:24:09.273Z,8.39
2019-03-21T05:24:40.487Z,8.40
2019-03-21T05:25:11.739Z,8.43
2019-03-21T05:25:42.968Z,8.47
2019-03-21T05:26:14.178Z,8.48
2019-03-21T05:26:45.390Z,8.48
2019-03-21T05:27:16.594Z,8.50
2019-03-21T05:27:47.790Z,8.52
2019-03-21T05:28:19.011Z,8.52
2019-03-21T05:28:50.220Z,8.50
2019-03-21T05:29:21.502Z,8.54
2019-03-21T05:29:52.707Z,8.57
2019-03-21T05:30:23.913Z,8.60
2019-03-21T05:30:55.128Z,8.60
2019-03-21T05:31:27.396Z,8.59
2019-03-21T05:31:58.606Z,8.57
2019-03-21T05:32:29.861Z,8.55
2019-03-21T05:33:01.064Z,8.59
2019-03-21T05:33:32.277Z,8.65
2019-03-21T05:34:03.529Z,8.70
2019-03-21T05:34:34.737Z,8.73
2019-03-21T05:35:05.945Z,8.78
2019-03-21T05:35:37.213Z,8.83
2019-03-21T05:36:08.447Z,8.86
2019-03-21T05:36:39.630Z,8.91
2019-03-21T05:37:10.847Z,8.93
2019-03-21T05:37:42.059Z,8.97
2019-03-21T05:38:13.272Z,8.99
2019-03-21T05:38:44.489Z,8.99
2019-03-21T05:39:15.702Z,8.98
2019-03-21T05:39:46.907Z,9.01
2019-03-21T05:40:18.131Z,9.03
2019-03-21T05:40:49.334Z,9.04
2019-03-21T05:41:20.568Z,9.08
2019-03-21T05:41:51.837Z,9.12
2019-03-21T05:42:23.077Z,9.14
2019-03-21T05:42:54.299Z,9.19
2019-03-21T05:43:25.503Z,9.21
2019-03-21T05:43:56.713Z,9.23
2019-03-21T05:44:27.927Z,9.26
2019-03-21T05:44:59.127Z,9.31
2019-03-21T05:45:31.245Z,9.34
2019-03-21T05:46:02.465Z,9.40
2019-03-21T05:46:33.719Z,9.40
2019-03-21T05:47:04.882Z,9.40
2019-03-21T05:47:36.131Z,9.43
2019-03-21T05:48:07.338Z,9.46
2019-03-21T05:48:38.610Z,9.44
2019-03-21T05:49:09.803Z,9.44
2019-03-21T05:49:41.066Z,9.50
2019-03-21T05:50:14.890Z,8.14
2019-03-21T05:50:45.202Z,9.63
2019-03-21T05:51:16.419Z,9.67
2019-03-21T05:51:47.633Z,9.69
2019-03-21T05:52:18.853Z,9.72
2019-03-21T05:52:50.078Z,9.71
2019-03-21T05:53:21.286Z,9.73
2019-03-21T05:53:52.565Z,9.75
2019-03-21T05:54:23.826Z,9.80
2019-03-21T05:54:55.040Z,9.84
2019-03-21T05:55:26.875Z,9.89
2019-03-21T05:55:58.265Z,9.92
2019-03-21T05:56:29.467Z,9.98
2019-03-21T05:57:00.677Z,10.04
2019-03-21T05:57:31.876Z,10.06
2019-03-21T05:58:03.098Z,10.08
2019-03-21T05:58:34.294Z,10.09
2019-03-21T05:59:05.550Z,10.08
2019-03-21T05:59:36.762Z,10.12
2019-03-21T06:00:07.969Z,10.17
2019-03-21T06:00:39.175Z,10.19
2019-03-21T06:01:10.378Z,10.20
2019-03-21T06:01:41.594Z,10.21
2019-03-21T06:02:12.797Z,10.23
2019-03-21T06:02:44.054Z,10.26
2019-03-21T06:03:15.274Z,10.27
2019-03-21T06:03:46.476Z,10.32
2019-03-21T06:04:17.797Z,10.32
2019-03-21T06:04:49.006Z,10.38
2019-03-21T06:05:20.214Z,10.47
2019-03-21T06:05:51.427Z,10.47
2019-03-21T06:06:22.641Z,10.50
2019-03-21T06:06:53.847Z,10.47
2019-03-21T06:07:25.102Z,10.47
2019-03-21T06:07:56.323Z,10.46
2019-03-21T06:08:27.534Z,10.43
2019-03-21T06:08:58.743Z,10.36
2019-03-21T06:09:29.949Z,10.29
2019-03-21T06:10:01.184Z,10.29
2019-03-21T06:10:33.315Z,10.31
2019-03-21T06:11:04.517Z,10.37
2019-03-21T06:11:35.745Z,10.37
2019-03-21T06:12:06.981Z,10.42
2019-03-21T06:12:38.200Z,10.45
2019-03-21T06:13:09.418Z,10.48
2019-03-21T06:13:40.631Z,10.50
2019-03-21T06:14:11.846Z,10.53
2019-03-21T06:14:43.056Z,10.58
2019-03-21T06:15:14.279Z,10.67
2019-03-21T06:15:45.494Z,10.76
2019-03-21T06:16:16.705Z,10.85
2019-03-21T06:16:47.936Z,10.89
2019-03-21T06:17:19.142Z,10.92
2019-03-21T06:17:50.383Z,10.95
2019-03-21T06:18:21.601Z,10.97
2019-03-21T06:18:52.810Z,11.02
2019-03-21T06:19:24.018Z,11.06
2019-03-21T06:19:55.261Z,11.12
2019-03-21T06:20:26.501Z,11.18
2019-03-21T06:20:57.718Z,11.24
2019-03-21T06:21:28.941Z,11.32
2019-03-21T06:22:00.156Z,11.42
2019-03-21T06:22:31.365Z,11.51
2019-03-21T06:23:02.606Z,11.49
2019-03-21T06:23:33.805Z,11.41
2019-03-21T06:24:05.066Z,11.29
2019-03-21T06:24:36.289Z,11.20
2019-03-21T06:25:07.487Z,11.16
2019-03-21T06:25:38.705Z,11.14
2019-03-21T06:26:09.917Z,11.10
2019-03-21T06:26:41.149Z,11.13
2019-03-21T06:27:14.795Z,11.15
2019-03-21T06:27:45.257Z,11.22
2019-03-21T06:28:16.518Z,11.28
2019-03-21T06:28:47.743Z,11.30
2019-03-21T06:29:19.005Z,11.30
2019-03-21T06:29:50.211Z,11.29
2019-03-21T06:30:21.419Z,11.32
2019-03-21T06:30:52.624Z,11.40
2019-03-21T06:31:23.891Z,11.51
2019-03-21T06:31:55.111Z,11.57
2019-03-21T06:32:26.319Z,11.57
2019-03-21T06:32:57.520Z,11.55
2019-03-21T06:33:28.742Z,11.57
2019-03-21T06:33:59.938Z,11.59
2019-03-21T06:34:31.182Z,11.67
2019-03-21T06:35:02.401Z,11.71
2019-03-21T06:35:33.611Z,11.80
2019-03-21T06:36:04.824Z,11.87
2019-03-21T06:36:36.070Z,11.94
2019-03-21T06:37:07.271Z,12.00
2019-03-21T06:37:38.524Z,12.06
2019-03-21T06:38:10.119Z,12.11
2019-03-21T06:38:41.333Z,12.17
2019-03-21T06:39:12.555Z,12.19
2019-03-21T06:39:43.819Z,12.19
2019-03-21T06:40:15.036Z,12.23
2019-03-21T06:40:46.267Z,12.29
2019-03-21T06:41:17.468Z,12.34
2019-03-21T06:41:48.721Z,12.43
2019-03-21T06:42:19.930Z,12.50
2019-03-21T06:42:51.135Z,12.58
2019-03-21T06:43:22.350Z,12.63
2019-03-21T06:43:53.555Z,12.71
2019-03-21T06:44:24.781Z,12.81
2019-03-21T06:44:55.987Z,12.88
2019-03-21T06:45:27.226Z,12.94
2019-03-21T06:45:58.435Z,12.96
2019-03-21T06:46:29.642Z,12.96
2019-03-21T06:47:00.851Z,12.99
2019-03-21T06:47:32.053Z,12.98
2019-03-21T06:48:03.261Z,12.99
2019-03-21T06:48:34.499Z,12.99
2019-03-21T06:49:05.706Z,13.00
2019-03-21T06:49:36.923Z,13.03
2019-03-21T06:50:08.135Z,13.03
2019-03-21T06:50:39.340Z,13.05
2019-03-21T06:51:10.543Z,13.00
2019-03-21T06:51:41.759Z,12.97
2019-03-21T06:52:12.978Z,12.95
2019-03-21T06:52:44.226Z,12.99
2019-03-21T06:53:15.438Z,11.58
2019-03-21T06:53:46.661Z,13.09